createdAt,value
2019-04-20T00:01:19.948Z,6.80
2019-04-20T00:03:48.240Z,5.97
2019-04-20T00:06:21.384Z,5.10
2019-04-20T00:09:04.949Z,5.80
2019-04-20T00:11:39.813Z,5.53
2019-04-20T00:14:07.062Z,5.42
2019-04-20T00:16:35.768Z,5.42
2019-04-20T00:19:09.292Z,5.03
2019-04-20T00:21:50.618Z,5.08
2019-04-20T00:24:26.922Z,5.62
2019-04-20T00:27:13.572Z,4.78
2019-04-20T00:29:45.235Z,5.28
2019-04-20T00:32:13.447Z,5.70
2019-04-20T00:34:38.295Z,5.10
2019-04-20T00:37:06.993Z,5.37
2019-04-20T00:39:38.878Z,4.85
2019-04-20T00:42:13.376Z,4.33
2019-04-20T00:44:45.829Z,4.72
2019-04-20T00:47:30.475Z,4.28
2019-04-20T00:50:02.558Z,4.85
2019-04-20T00:52:34.114Z,4.72
2019-04-20T00:54:58.024Z,4.92
2019-04-20T00:57:38.027Z,4.30
2019-04-20T01:00:22.887Z,4.05
2019-04-20T01:02:49.102Z,4.95
2019-04-20T01:05:35.410Z,4.35
2019-04-20T01:08:01.667Z,5.15
2019-04-20T01:10:38.508Z,5.72
2019-04-20T01:13:08.689Z,5.03
2019-04-20T01:15:48.874Z,4.62
2019-04-20T01:18:13.826Z,4.42
2019-04-20T01:20:45.144Z,4.17
2019-04-20T01:23:20.983Z,4.75
2019-04-20T01:25:57.895Z,5.22
2019-04-20T01:28:37.503Z,4.80
2019-04-20T01:31:06.485Z,4.55
2019-04-20T01:33:42.612Z,4.70
2019-04-20T01:36:19.630Z,4.75
2019-04-20T01:38:55.345Z,4.67
2019-04-20T01:41:09.600Z,4.90
2019-04-20T01:43:41.613Z,4.60
2019-04-20T01:46:19.817Z,4.92
2019-04-20T01:48:48.181Z,4.85
2019-04-20T01:51:26.385Z,5.40
2019-04-20T01:54:17.689Z,5.15
2019-04-20T01:56:47.590Z,5.78
2019-04-20T01:59:44.023Z,4.97
2019-04-20T02:02:35.487Z,5.60
2019-04-20T02:05:16.922Z,5.53
2019-04-20T02:07:48.800Z,5.62
2019-04-20T02:10:19.997Z,5.12
2019-04-20T02:12:57.574Z,5.67
2019-04-20T02:15:32.717Z,5.83
2019-04-20T02:18:11.793Z,5.67
2019-04-20T02:20:48.961Z,5.77
2019-04-20T02:23:19.947Z,5.83
2019-04-20T02:25:37.824Z,5.70
2019-04-20T02:28:27.751Z,5.12
2019-04-20T02:33:58.129Z,5.90
2019-04-20T02:36:45.756Z,5.47
2019-04-20T02:44:27.182Z,6.45
2019-04-20T02:52:02.986Z,5.67
2019-04-20T02:57:05.695Z,6.03
2019-04-20T03:02:01.428Z,5.90
2019-04-20T03:04:24.970Z,6.05
2019-04-20T03:07:06.765Z,5.10
2019-04-20T03:09:40.253Z,6.00
2019-04-20T03:12:18.540Z,6.35
2019-04-20T03:14:39.619Z,6.20
2019-04-20T03:17:25.608Z,5.30
2019-04-20T03:19:47.647Z,5.47
2019-04-20T03:22:48.311Z,5.30
2019-04-20T03:25:06.936Z,4.90
2019-04-20T03:27:41.038Z,5.65
2019-04-20T03:36:16.240Z,5.87
2019-04-20T03:38:33.009Z,5.83
2019-04-20T03:40:59.494Z,5.95
2019-04-20T03:43:20.164Z,5.78
2019-04-20T03:45:59.491Z,6.15
2019-04-20T03:48:41.163Z,6.22
2019-04-20T03:51:23.608Z,5.80
2019-04-20T03:54:08.537Z,6.05
2019-04-20T03:56:54.392Z,5.93
2019-04-20T03:59:43.728Z,5.37
2019-04-20T04:02:50.599Z,5.53
2019-04-20T04:05:19.359Z,5.90
2019-04-20T04:07:41.549Z,5.73
2019-04-20T04:10:20.676Z,5.80
2019-04-20T04:13:12.318Z,5.35
2019-04-20T04:15:52.292Z,6.33
2019-04-20T04:18:28.200Z,6.50
2019-04-20T04:21:02.955Z,5.92
2019-04-20T04:23:44.904Z,5.87
2019-04-20T04:26:17.173Z,6.17
2019-04-20T04:28:47.583Z,5.78
2019-04-20T04:31:28.023Z,6.12
2019-04-20T04:34:14.721Z,6.00
2019-04-20T04:36:30.153Z,6.30
2019-04-20T04:39:13.861Z,7.23
2019-04-20T04:41:39.806Z,6.60
2019-04-20T04:44:11.224Z,7.00
2019-04-20T04:46:29.131Z,6.50
2019-04-20T04:49:09.556Z,6.67
2019-04-20T04:51:44.653Z,6.62
2019-04-20T04:54:16.416Z,7.55
2019-04-20T04:56:41.715Z,5.95
2019-04-20T04:59:13.354Z,6.80
2019-04-20T05:01:46.983Z,6.30
2019-04-20T05:04:41.507Z,6.70
2019-04-20T05:07:07.273Z,6.70
2019-04-20T05:09:27.583Z,6.45
2019-04-20T05:12:05.366Z,6.45
2019-04-20T05:14:45.327Z,5.65
2019-04-20T05:17:21.944Z,6.05
2019-04-20T05:19:57.822Z,6.33
2019-04-20T05:22:31.075Z,6.15
2019-04-20T05:25:11.980Z,6.60
2019-04-20T05:27:51.199Z,6.12
2019-04-20T05:30:07.686Z,6.37
2019-04-20T05:32:47.832Z,6.00
2019-04-20T05:35:31.377Z,6.28
2019-04-20T05:38:13.290Z,6.20
2019-04-20T05:40:38.432Z,6.17
2019-04-20T05:43:22.899Z,5.97
2019-04-20T05:45:50.199Z,6.22
2019-04-20T05:48:26.150Z,5.37
2019-04-20T05:51:04.591Z,5.55
2019-04-20T05:53:38.570Z,6.03
2019-04-20T05:56:11.637Z,5.60
2019-04-20T05:58:44.811Z,5.80
2019-04-20T06:01:23.167Z,5.50
2019-04-20T06:03:49.044Z,6.00
2019-04-20T06:06:28.930Z,6.97
2019-04-20T06:08:59.644Z,5.95
2019-04-20T06:11:33.852Z,5.95
2019-04-20T06:14:10.477Z,6.20
2019-04-20T06:17:20.986Z,5.78
2019-04-20T06:19:46.673Z,5.62
2019-04-20T06:22:46.785Z,5.75
2019-04-20T06:25:23.984Z,5.28
2019-04-20T06:27:49.214Z,4.87
2019-04-20T06:30:12.180Z,4.80
2019-04-20T06:33:45.131Z,5.35
2019-04-20T06:38:49.722Z,4.85
2019-04-20T06:41:16.316Z,4.42
2019-04-20T06:43:40.937Z,5.40
2019-04-20T06:46:16.190Z,5.50
2019-04-20T06:48:46.087Z,5.87
2019-04-20T06:51:22.334Z,5.65
2019-04-20T06:53:52.517Z,5.33
2019-04-20T06:56:41.723Z,4.70
2019-04-20T06:59:21.574Z,5.50
2019-04-20T07:01:48.692Z,5.72
2019-04-20T07:04:36.518Z,5.50
2019-04-20T07:07:02.348Z,4.95
2019-04-20T07:09:32.451Z,5.87
2019-04-20T07:11:56.817Z,6.10
2019-04-20T07:14:25.883Z,6.15
2019-04-20T07:17:20.620Z,5.58
2019-04-20T07:19:51.765Z,6.85
2019-04-20T07:22:46.150Z,5.90
2019-04-20T07:25:02.479Z,5.50
2019-04-20T07:27:35.450Z,6.20
2019-04-20T07:30:14.999Z,5.67
2019-04-20T07:32:56.450Z,5.22
2019-04-20T07:35:22.062Z,5.00
2019-04-20T07:40:24.562Z,4.85
2019-04-20T07:42:58.744Z,5.85
2019-04-20T07:45:33.536Z,5.83
2019-04-20T07:48:11.263Z,5.55
2019-04-20T07:50:35.182Z,5.65
2019-04-20T07:53:08.913Z,5.42
2019-04-20T07:55:51.113Z,5.53
2019-04-20T07:58:10.898Z,5.12
2019-04-20T08:01:03.963Z,5.60
2019-04-20T08:03:38.709Z,6.33
2019-04-20T08:06:17.500Z,5.95
2019-04-20T08:08:57.377Z,5.33
2019-04-20T08:11:47.317Z,5.53
2019-04-20T08:14:13.096Z,4.78
2019-04-20T08:19:17.467Z,5.75
2019-04-20T08:21:50.005Z,6.08
2019-04-20T08:24:23.399Z,5.70
2019-04-20T08:26:44.376Z,5.90
2019-04-20T08:29:41.748Z,4.95
2019-04-20T08:32:32.477Z,4.67
2019-04-20T08:35:17.824Z,4.72
2019-04-20T08:37:48.877Z,5.35
2019-04-20T08:40:14.350Z,4.65
2019-04-20T08:42:56.024Z,4.62
2019-04-20T08:45:24.122Z,4.30
2019-04-20T08:47:57.004Z,5.60
2019-04-20T08:50:27.077Z,4.30
2019-04-20T08:53:15.658Z,4.92
2019-04-20T08:55:29.777Z,4.05
2019-04-20T08:57:49.208Z,4.90
2019-04-20T09:00:29.395Z,4.65
2019-04-20T09:03:09.316Z,3.58
2019-04-20T09:05:45.573Z,4.00
2019-04-20T09:08:14.390Z,4.85
2019-04-20T09:10:55.972Z,3.87
2019-04-20T09:13:21.281Z,5.17
2019-04-20T09:15:47.631Z,4.15
2019-04-20T09:18:40.067Z,3.65
2019-04-20T09:21:09.769Z,3.98
2019-04-20T09:23:54.596Z,3.90
2019-04-20T09:26:29.751Z,3.83
2019-04-20T09:28:59.122Z,3.83
2019-04-20T09:31:40.470Z,4.37
2019-04-20T09:34:42.779Z,3.83
2019-04-20T09:37:33.799Z,3.77
2019-04-20T09:40:21.640Z,3.85
2019-04-20T09:42:49.525Z,3.52
2019-04-20T09:45:33.013Z,3.55
2019-04-20T09:48:00.061Z,3.65
2019-04-20T09:50:50.945Z,3.37
2019-04-20T09:53:19.750Z,4.10
2019-04-20T09:55:59.324Z,3.72
2019-04-20T09:58:21.335Z,3.67
2019-04-20T10:01:00.817Z,3.65
2019-04-20T10:03:20.481Z,3.40
2019-04-20T10:05:51.912Z,3.40
2019-04-20T10:08:24.373Z,3.58
2019-04-20T10:10:56.194Z,3.90
2019-04-20T10:13:28.005Z,3.00
2019-04-20T10:15:59.709Z,3.10
2019-04-20T10:18:34.295Z,2.75
2019-04-20T10:21:05.834Z,3.08
2019-04-20T10:23:38.635Z,2.90
2019-04-20T10:26:10.680Z,2.65
2019-04-20T10:28:43.571Z,3.08
2019-04-20T10:31:14.986Z,2.50
2019-04-20T10:33:51.420Z,2.70
2019-04-20T10:36:37.484Z,2.62
2019-04-20T10:39:10.868Z,2.20
2019-04-20T10:41:50.153Z,2.40
2019-04-20T10:44:16.712Z,2.50
2019-04-20T10:46:49.153Z,2.10
2019-04-20T10:49:20.926Z,2.40
2019-04-20T10:51:53.577Z,2.65
2019-04-20T10:54:27.256Z,2.17
2019-04-20T10:57:01.405Z,2.33
2019-04-20T10:59:34.250Z,1.90
2019-04-20T11:02:07.935Z,1.98
2019-04-20T11:04:40.898Z,2.10
2019-04-20T11:07:12.505Z,2.42
2019-04-20T11:09:44.817Z,2.05
2019-04-20T11:12:16.648Z,1.95
2019-04-20T11:14:48.338Z,2.70
2019-04-20T11:17:20.430Z,1.98
2019-04-20T11:19:52.244Z,2.42
2019-04-20T11:22:24.161Z,2.27
2019-04-20T11:24:56.570Z,2.15
2019-04-20T11:27:29.940Z,1.92
2019-04-20T11:30:02.682Z,2.02
2019-04-20T11:32:35.998Z,2.25
2019-04-20T11:35:18.931Z,2.00
2019-04-20T11:37:42.793Z,2.02
2019-04-20T11:40:15.029Z,2.10
2019-04-20T11:42:47.832Z,2.00
2019-04-20T11:45:22.655Z,2.30
2019-04-20T11:47:55.624Z,2.00
2019-04-20T11:50:27.524Z,1.90
2019-04-20T11:52:59.365Z,2.47
2019-04-20T11:55:30.804Z,2.00
2019-04-20T11:58:03.711Z,1.98
2019-04-20T12:00:53.966Z,3.10
2019-04-20T12:03:24.812Z,2.20
2019-04-20T12:05:56.998Z,3.00
2019-04-20T12:08:25.189Z,2.92
2019-04-20T12:10:59.643Z,2.67
2019-04-20T12:13:34.505Z,2.65
2019-04-20T12:16:05.887Z,2.50
2019-04-20T12:18:37.941Z,3.40
2019-04-20T12:21:10.545Z,3.02
2019-04-20T12:23:42.390Z,3.30
2019-04-20T12:26:14.834Z,4.50
2019-04-20T12:28:47.614Z,3.20
2019-04-20T12:31:23.700Z,3.05
2019-04-20T12:33:53.001Z,3.50
2019-04-20T12:36:25.961Z,2.27
2019-04-20T12:38:57.588Z,2.25
2019-04-20T12:41:37.892Z,2.17
2019-04-20T12:44:03.778Z,2.65
2019-04-20T12:46:36.023Z,2.27
2019-04-20T12:49:07.837Z,2.37
2019-04-20T12:51:46.527Z,2.10
2019-04-20T12:54:12.855Z,2.42
2019-04-20T12:56:44.706Z,2.67
2019-04-20T12:59:16.210Z,2.62
2019-04-20T13:01:47.514Z,2.10
2019-04-20T13:04:18.905Z,2.20
2019-04-20T13:06:53.752Z,2.02
2019-04-20T13:09:26.301Z,2.22
2019-04-20T13:12:10.760Z,2.50
2019-04-20T13:16:02.619Z,2.10
2019-04-20T13:18:41.563Z,2.10
2019-04-20T13:21:16.759Z,2.67
2019-04-20T13:24:05.062Z,2.00
2019-04-20T13:26:40.758Z,2.40
2019-04-20T13:29:12.957Z,5.30
2019-04-20T13:31:50.154Z,2.35
2019-04-20T13:34:22.329Z,2.30
2019-04-20T13:36:53.773Z,2.62
2019-04-20T13:39:26.750Z,3.60
2019-04-20T13:42:09.569Z,2.15
2019-04-20T13:44:32.670Z,2.50
2019-04-20T13:47:05.114Z,2.37
2019-04-20T13:49:36.853Z,3.00
2019-04-20T13:52:08.801Z,2.85
2019-04-20T13:54:40.601Z,2.52
2019-04-20T13:57:19.743Z,2.45
2019-04-20T13:59:55.888Z,2.80
2019-04-20T14:02:48.898Z,2.58
2019-04-20T14:05:30.823Z,2.87
2019-04-20T14:08:05.754Z,2.47
2019-04-20T14:10:39.870Z,2.55
2019-04-20T14:13:16.597Z,2.45
2019-04-20T14:15:47.212Z,2.33
2019-04-20T14:18:19.431Z,2.77
2019-04-20T14:20:58.334Z,2.58
2019-04-20T14:23:32.757Z,2.35
2019-04-20T14:26:04.981Z,2.65
2019-04-20T14:28:36.793Z,2.45
2019-04-20T14:31:11.936Z,2.62
2019-04-20T14:33:44.660Z,2.12
2019-04-20T14:36:16.936Z,2.42
2019-04-20T14:38:49.788Z,2.17
2019-04-20T14:41:22.364Z,2.20
2019-04-20T14:43:57.273Z,2.40
2019-04-20T14:46:29.535Z,2.10
2019-04-20T14:49:03.350Z,1.82
2019-04-20T14:51:35.306Z,2.00
2019-04-20T14:54:09.633Z,2.45
2019-04-20T14:56:43.495Z,2.58
2019-04-20T14:59:21.631Z,3.27
2019-04-20T15:01:56.712Z,3.17
2019-04-20T15:04:30.226Z,3.30
2019-04-20T15:07:02.526Z,3.42
2019-04-20T15:09:37.539Z,3.60
2019-04-20T15:12:08.814Z,3.58
2019-04-20T15:14:43.157Z,3.20
2019-04-20T15:17:21.499Z,4.05
2019-04-20T15:20:09.914Z,3.80
2019-04-20T15:22:47.606Z,3.25
2019-04-20T15:25:18.987Z,4.30
2019-04-20T15:27:52.304Z,3.92
2019-04-20T15:30:24.438Z,3.27
2019-04-20T15:32:59.024Z,3.85
2019-04-20T15:35:30.192Z,3.90
2019-04-20T15:38:02.917Z,4.33
2019-04-20T15:40:35.242Z,3.85
2019-04-20T15:43:13.521Z,4.35
2019-04-20T15:45:43.331Z,4.08
2019-04-20T15:48:14.269Z,4.03
2019-04-20T15:50:46.104Z,4.10
2019-04-20T15:53:17.774Z,4.50
2019-04-20T15:55:50.506Z,4.00
2019-04-20T15:58:27.927Z,3.98
2019-04-20T16:01:00.532Z,3.77
2019-04-20T16:03:37.494Z,3.92
2019-04-20T16:06:11.363Z,4.55
2019-04-20T16:08:50.208Z,4.05
2019-04-20T16:11:21.897Z,3.98
2019-04-20T16:13:56.190Z,4.37
2019-04-20T16:16:29.958Z,4.65
2019-04-20T16:19:06.228Z,5.30
2019-04-20T16:21:37.364Z,4.72
2019-04-20T16:24:14.860Z,4.92
2019-04-20T16:26:51.595Z,4.90
2019-04-20T16:29:23.955Z,4.78
2019-04-20T16:31:58.327Z,4.55
2019-04-20T16:34:31.659Z,4.83
2019-04-20T16:37:04.281Z,5.08
2019-04-20T16:39:40.704Z,5.40
2019-04-20T16:42:14.569Z,4.35
2019-04-20T16:44:47.211Z,4.60
2019-04-20T16:47:21.883Z,5.53
2019-04-20T16:49:55.026Z,4.83
2019-04-20T16:52:26.602Z,5.60
2019-04-20T16:55:02.166Z,5.42
2019-04-20T16:57:35.137Z,5.62
2019-04-20T17:00:07.739Z,5.53
2019-04-20T17:02:40.434Z,5.80
2019-04-20T17:05:13.401Z,4.80
2019-04-20T17:07:47.047Z,4.50
2019-04-20T17:10:22.354Z,4.65
2019-04-20T17:12:53.691Z,5.20
2019-04-20T17:15:25.537Z,4.80
2019-04-20T17:17:58.963Z,4.60
2019-04-20T17:20:30.758Z,5.10
2019-04-20T17:23:05.621Z,5.78
2019-04-20T17:25:35.561Z,4.95
2019-04-20T17:28:28.896Z,5.05
2019-04-20T17:31:13.521Z,5.37
2019-04-20T17:33:58.960Z,5.05
2019-04-20T17:36:28.934Z,5.08
2019-04-20T17:38:59.765Z,5.12
2019-04-20T17:41:48.912Z,6.35
2019-04-20T17:44:27.878Z,6.50
2019-04-20T17:46:48.970Z,7.12
2019-04-20T17:49:25.952Z,7.75
2019-04-20T17:52:12.646Z,7.05
2019-04-20T17:54:22.833Z,7.10
2019-04-20T17:56:54.420Z,6.28
2019-04-20T17:59:28.377Z,6.95
2019-04-20T18:02:43.198Z,7.15
2019-04-20T18:05:39.393Z,6.00
2019-04-20T18:08:15.391Z,6.70
2019-04-20T18:10:40.381Z,6.20
2019-04-20T18:13:05.715Z,6.53
2019-04-20T18:15:45.491Z,6.30
2019-04-20T18:18:35.468Z,6.67
2019-04-20T18:21:18.977Z,6.92
2019-04-20T18:23:51.803Z,6.28
2019-04-20T18:26:43.214Z,6.62
2019-04-20T18:31:45.356Z,7.40
2019-04-20T18:34:25.379Z,7.50
2019-04-20T18:36:56.386Z,6.47
2019-04-20T18:39:37.457Z,6.53
2019-04-20T18:42:11.110Z,6.55
2019-04-20T18:44:54.595Z,6.47
2019-04-20T18:47:28.997Z,6.95
2019-04-20T18:49:54.964Z,6.65
2019-04-20T18:52:17.806Z,8.10
2019-04-20T18:54:52.005Z,11.05
2019-04-20T18:57:26.050Z,8.40
2019-04-20T18:59:57.224Z,8.70
2019-04-20T19:02:33.482Z,8.55
2019-04-20T19:05:03.844Z,9.20
2019-04-20T19:07:41.464Z,8.55
2019-04-20T19:10:19.558Z,8.38
2019-04-20T19:12:53.475Z,6.67
2019-04-20T19:16:00.138Z,7.62
2019-04-20T19:18:45.244Z,7.22
2019-04-20T19:21:04.495Z,7.55
2019-04-20T19:23:40.531Z,7.78
2019-04-20T19:26:15.464Z,7.45
2019-04-20T19:28:46.974Z,6.87
2019-04-20T19:31:32.787Z,6.70
2019-04-20T19:34:06.205Z,6.22
2019-04-20T19:36:31.996Z,7.12
2019-04-20T19:39:17.261Z,7.08
2019-04-20T19:41:40.685Z,6.55
2019-04-20T19:44:13.574Z,7.17
2019-04-20T19:46:55.007Z,7.37
2019-04-20T19:49:21.678Z,6.58
2019-04-20T19:52:13.237Z,6.40
2019-04-20T19:54:38.622Z,7.05
2019-04-20T19:57:04.909Z,6.28
2019-04-20T19:59:31.527Z,6.42
2019-04-20T20:02:05.532Z,6.50
2019-04-20T20:04:48.620Z,5.97
2019-04-20T20:07:21.962Z,6.17
2019-04-20T20:09:54.655Z,6.28
2019-04-20T20:12:21.340Z,6.78
2019-04-20T20:14:53.486Z,5.78
2019-04-20T20:17:45.603Z,5.70
2019-04-20T20:22:37.749Z,6.08
2019-04-20T20:25:05.700Z,5.22
2019-04-20T20:27:47.908Z,6.15
2019-04-20T20:30:21.546Z,6.60
2019-04-20T20:33:01.299Z,6.53
2019-04-20T20:35:23.656Z,6.35
2019-04-20T20:37:57.129Z,6.50
2019-04-20T20:40:29.890Z,6.60
2019-04-20T20:43:08.392Z,6.95
2019-04-20T20:45:38.476Z,6.25
2019-04-20T20:48:22.683Z,6.10
2019-04-20T20:50:53.321Z,6.30
2019-04-20T20:53:18.723Z,6.03
2019-04-20T20:55:47.964Z,6.22
2019-04-20T20:58:32.365Z,6.35
2019-04-20T21:00:57.622Z,5.28
2019-04-20T21:03:31.238Z,6.12
2019-04-20T21:05:59.836Z,6.08
2019-04-20T21:08:35.273Z,5.92
2019-04-20T21:11:14.734Z,6.53
2019-04-20T21:13:42.855Z,6.37
2019-04-20T21:16:17.310Z,6.50
2019-04-20T21:19:03.210Z,6.40
2019-04-20T21:21:34.917Z,7.47
2019-04-20T21:24:06.300Z,6.70
2019-04-20T21:26:35.647Z,7.42
2019-04-20T21:29:03.913Z,6.95
2019-04-20T21:31:36.687Z,11.28
2019-04-20T21:34:15.131Z,15.10
2019-04-20T21:36:43.410Z,16.27
2019-04-20T21:39:21.471Z,18.52
2019-04-20T21:41:56.825Z,19.07
2019-04-20T21:44:28.707Z,19.85
2019-04-20T21:46:56.725Z,20.75
2019-04-20T21:49:42.291Z,21.40
2019-04-20T21:52:06.543Z,23.15
2019-04-20T21:54:36.029Z,27.05
2019-04-20T21:57:10.799Z,24.92
2019-04-20T21:59:45.019Z,25.72
2019-04-20T22:02:21.691Z,25.45
2019-04-20T22:04:51.512Z,22.35
2019-04-20T22:07:22.979Z,21.93
2019-04-20T22:09:55.383Z,21.48
2019-04-20T22:12:37.856Z,21.73
2019-04-20T22:15:10.127Z,21.48
2019-04-20T22:17:36.363Z,21.65
2019-04-20T22:20:20.144Z,21.25
2019-04-20T22:22:57.172Z,20.48
2019-04-20T22:25:33.213Z,20.15
2019-04-20T22:27:50.402Z,19.85
2019-04-20T22:30:22.139Z,18.62
2019-04-20T22:32:56.580Z,17.87
2019-04-20T22:35:31.195Z,17.73
2019-04-20T22:38:14.270Z,17.20
2019-04-20T22:40:48.999Z,16.12
2019-04-20T22:43:33.705Z,16.75
2019-04-20T22:46:25.819Z,16.10
2019-04-20T22:49:07.209Z,15.20
2019-04-20T22:51:39.962Z,13.75
2019-04-20T22:56:44.060Z,13.55
2019-04-20T22:59:12.548Z,13.78
2019-04-20T23:01:45.853Z,12.47
2019-04-20T23:04:12.804Z,13.30
2019-04-20T23:06:48.539Z,14.25
2019-04-20T23:09:18.842Z,12.40
2019-04-20T23:11:54.641Z,12.70
2019-04-20T23:14:24.669Z,11.70
2019-04-20T23:16:57.577Z,12.73
2019-04-20T23:19:40.669Z,11.53
2019-04-20T23:22:09.918Z,11.75
2019-04-20T23:24:39.673Z,11.48
2019-04-20T23:27:18.139Z,12.23
2019-04-20T23:29:45.210Z,11.57
2019-04-20T23:32:19.487Z,11.60
2019-04-20T23:34:57.640Z,11.40
2019-04-20T23:37:31.446Z,12.75
2019-04-20T23:40:00.441Z,12.33
2019-04-20T23:42:45.869Z,13.30
2019-04-20T23:45:43.853Z,14.07
2019-04-20T23:48:22.701Z,14.78
2019-04-20T23:51:11.218Z,12.82
2019-04-20T23:53:48.834Z,13.28
2019-04-20T23:56:15.641Z,12.60
2019-04-20T23:58:46.585Z,13.40
